Time;durP1;ratioP1;P1;durP2;ratioP2;P2;SDS_P1;SDS_P2;PMS_P1;PMS_P2;Temp;Humidity;BMP_temperature;BMP_pressure;BME280_temperature;BME280_humidity;BME280_pressure;Samples;Min_cycle;Max_cycle;Signal;HPM_P1;HPM_P2
2023/09/30 00:02:31;;;;;;;21.17;8.07;;;12.70;99.90;;;;;;8391427;28;20478;-80
2023/09/30 00:06:32;;;;;;;19.25;7.40;;;12.50;99.90;;;;;;8383420;28;20024;-82
2023/09/30 00:10:32;;;;;;;17.17;7.03;;;12.40;99.90;;;;;;8383573;28;20020;-79
2023/09/30 00:14:33;;;;;;;18.75;7.60;;;12.50;99.90;;;;;;8392972;28;20028;-80
2023/09/30 00:18:33;;;;;;;18.75;6.93;;;12.70;99.90;;;;;;8380884;28;20078;-80
2023/09/30 00:22:34;;;;;;;16.25;6.22;;;12.70;99.90;;;;;;8380638;28;20020;-79
2023/09/30 00:26:35;;;;;;;17.05;7.57;;;12.50;99.90;;;;;;8386418;28;20025;-80
2023/09/30 00:30:36;;;;;;;16.10;6.93;;;12.40;99.90;;;;;;8373683;28;20024;-78
2023/09/30 00:34:36;;;;;;;14.70;6.65;;;12.30;99.90;;;;;;8391052;28;20477;-80
2023/09/30 00:38:37;;;;;;;16.33;6.15;;;12.10;99.90;;;;;;8370513;28;20085;-80
2023/09/30 00:42:38;;;;;;;16.55;6.53;;;12.10;99.90;;;;;;8374082;28;20484;-80
2023/09/30 00:46:42;;;;;;;19.58;6.22;;;12.00;99.90;;;;;;8375878;28;20037;-80
2023/09/30 00:50:43;;;;;;;20.02;7.47;;;12.20;99.90;;;;;;8394372;28;20075;-78
2023/09/30 00:54:46;;;;;;;16.27;5.80;;;12.20;99.90;;;;;;8380389;28;20025;-79
2023/09/30 00:58:48;;;;;;;17.77;6.10;;;12.30;99.90;;;;;;8373060;28;20021;-79
2023/09/30 01:02:48;;;;;;;14.20;6.20;;;12.20;99.90;;;;;;8366337;28;20028;-80
2023/09/30 01:06:49;;;;;;;15.60;6.75;;;12.00;99.90;;;;;;8375199;28;20029;-80
2023/09/30 01:10:50;;;;;;;18.02;7.30;;;12.00;99.90;;;;;;8373664;28;20488;-79
2023/09/30 01:14:57;;;;;;;18.90;7.22;;;12.00;99.90;;;;;;8365370;28;20400;-80
2023/09/30 01:18:58;;;;;;;17.05;6.70;;;12.10;99.90;;;;;;8365759;28;20033;-79
2023/09/30 01:22:58;;;;;;;15.45;6.03;;;12.20;99.90;;;;;;8379826;28;20111;-80
2023/09/30 01:26:59;;;;;;;15.27;6.68;;;12.40;99.90;;;;;;8383136;28;20025;-79
2023/09/30 01:30:59;;;;;;;14.00;6.63;;;12.50;99.90;;;;;;8365829;28;20117;-80
2023/09/30 01:35:01;;;;;;;18.23;6.68;;;12.50;99.90;;;;;;8391943;28;20043;-79
2023/09/30 01:39:02;;;;;;;16.92;6.45;;;12.60;99.90;;;;;;8371259;28;20029;-80
2023/09/30 01:43:03;;;;;;;18.02;6.78;;;12.80;99.90;;;;;;8364853;28;20032;-80
2023/09/30 01:47:04;;;;;;;19.05;7.00;;;12.80;99.90;;;;;;8386309;28;20115;-80
2023/09/30 01:51:05;;;;;;;15.73;5.97;;;12.80;99.90;;;;;;8359661;28;20020;-80
2023/09/30 01:55:06;;;;;;;14.68;6.57;;;12.80;99.90;;;;;;8372504;28;20620;-80
2023/09/30 01:59:07;;;;;;;17.17;7.43;;;12.80;99.90;;;;;;8369426;28;20028;-80
2023/09/30 02:03:07;;;;;;;16.92;6.65;;;12.90;99.90;;;;;;8362388;28;20046;-80
2023/09/30 02:07:08;;;;;;;16.20;6.32;;;13.00;99.90;;;;;;8362728;28;20017;-79
2023/09/30 02:11:08;;;;;;;14.27;6.18;;;13.00;99.90;;;;;;8364645;28;20067;-78
2023/09/30 02:15:09;;;;;;;18.30;6.28;;;13.10;99.90;;;;;;8377210;28;20020;-79
2023/09/30 02:19:10;;;;;;;15.70;6.55;;;13.10;99.90;;;;;;8377628;28;20020;-80
2023/09/30 02:23:11;;;;;;;13.38;5.75;;;13.10;99.90;;;;;;8379293;28;20047;-80
2023/09/30 02:27:11;;;;;;;16.90;5.45;;;13.10;99.90;;;;;;8371804;28;20491;-80
2023/09/30 02:31:12;;;;;;;14.73;6.05;;;13.20;99.90;;;;;;8369126;28;20037;-79
2023/09/30 02:35:15;;;;;;;14.95;5.10;;;13.40;99.90;;;;;;8378692;28;20035;-79
2023/09/30 02:39:16;;;;;;;14.38;5.90;;;13.10;99.90;;;;;;8372995;28;20519;-80
2023/09/30 02:43:16;;;;;;;15.13;5.90;;;12.70;99.90;;;;;;8351969;28;20397;-79
2023/09/30 02:47:17;;;;;;;16.63;6.13;;;12.50;99.90;;;;;;8373973;28;20027;-80
2023/09/30 02:51:17;;;;;;;14.05;5.88;;;12.60;99.90;;;;;;8373224;28;20028;-79
2023/09/30 02:55:18;;;;;;;14.65;5.43;;;12.50;99.90;;;;;;8360941;28;20025;-78
2023/09/30 02:59:20;;;;;;;13.05;6.15;;;12.40;99.90;;;;;;8384704;28;20657;-79
2023/09/30 03:03:21;;;;;;;15.45;5.57;;;12.40;99.90;;;;;;8375314;28;20027;-79
2023/09/30 03:07:22;;;;;;;12.32;5.47;;;12.40;99.90;;;;;;8375817;28;20027;-78
2023/09/30 03:11:23;;;;;;;12.38;5.00;;;12.30;99.90;;;;;;8369812;28;20661;-80
2023/09/30 03:15:23;;;;;;;13.35;5.18;;;12.20;99.90;;;;;;8376784;28;20105;-80
2023/09/30 03:19:24;;;;;;;12.85;5.47;;;12.20;99.90;;;;;;8389084;28;20097;-79
2023/09/30 03:23:28;;;;;;;13.93;5.68;;;12.10;99.90;;;;;;8363462;28;20158;-79
2023/09/30 03:27:30;;;;;;;15.23;5.82;;;12.00;99.90;;;;;;8378063;28;20017;-80
2023/09/30 03:31:30;;;;;;;13.10;5.88;;;12.20;99.90;;;;;;8374649;28;20077;-80
2023/09/30 03:35:32;;;;;;;15.75;5.97;;;12.10;99.90;;;;;;8386754;28;20025;-80
2023/09/30 03:39:32;;;;;;;14.70;6.05;;;12.30;99.90;;;;;;8381494;28;20020;-79
2023/09/30 03:43:35;;;;;;;16.08;5.68;;;12.30;99.90;;;;;;8382287;28;20021;-79
2023/09/30 03:47:37;;;;;;;14.00;5.15;;;12.40;99.90;;;;;;8382204;28;20112;-80
2023/09/30 03:51:37;;;;;;;12.18;5.15;;;12.60;99.90;;;;;;8366007;28;20037;-80
2023/09/30 03:55:38;;;;;;;12.25;5.50;;;12.60;99.90;;;;;;8374671;28;20028;-80
2023/09/30 03:59:39;;;;;;;15.93;6.32;;;12.20;99.90;;;;;;8369713;28;20035;-79
2023/09/30 04:03:40;;;;;;;14.15;5.82;;;11.90;99.90;;;;;;8394917;28;20033;-78
2023/09/30 04:07:42;;;;;;;11.32;4.75;;;11.90;99.90;;;;;;8365689;28;20048;-79
2023/09/30 04:11:42;;;;;;;11.35;5.07;;;11.80;99.90;;;;;;8368985;28;20078;-80
2023/09/30 04:15:44;;;;;;;14.65;5.70;;;11.70;99.90;;;;;;8397979;28;20028;-80
2023/09/30 04:19:45;;;;;;;16.20;5.75;;;11.60;99.90;;;;;;8373368;28;20496;-79
2023/09/30 04:23:46;;;;;;;15.10;6.13;;;12.00;99.90;;;;;;8380530;28;20029;-80
2023/09/30 04:27:48;;;;;;;14.07;5.72;;;11.80;99.90;;;;;;8381582;28;20040;-80
2023/09/30 04:31:48;;;;;;;12.63;5.25;;;11.60;99.90;;;;;;8394622;28;20025;-80
2023/09/30 04:35:49;;;;;;;12.75;4.63;;;11.40;99.90;;;;;;8390977;28;20035;-81
2023/09/30 04:39:49;;;;;;;13.90;5.55;;;11.20;99.90;;;;;;8385252;28;20078;-80
2023/09/30 04:43:50;;;;;;;15.95;5.43;;;11.00;99.90;;;;;;8374307;28;20032;-78
2023/09/30 04:47:50;;;;;;;14.07;5.35;;;10.80;99.90;;;;;;8386362;28;20036;-80
2023/09/30 04:51:51;;;;;;;15.25;6.07;;;10.70;99.90;;;;;;8378987;28;20025;-80
2023/09/30 04:55:51;;;;;;;10.80;4.95;;;10.60;99.90;;;;;;8392598;28;20039;-80
2023/09/30 04:59:52;;;;;;;12.98;5.40;;;10.50;99.90;;;;;;8365780;28;20025;-81
2023/09/30 05:03:53;;;;;;;13.18;5.25;;;10.50;99.90;;;;;;8374856;28;20021;-80
2023/09/30 05:07:54;;;;;;;14.32;5.03;;;10.50;99.90;;;;;;8362988;28;20100;-80
2023/09/30 05:11:55;;;;;;;13.73;5.60;;;10.40;99.90;;;;;;8405127;28;20029;-79
2023/09/30 05:15:55;;;;;;;13.88;5.85;;;10.40;99.90;;;;;;8399265;28;20024;-80
2023/09/30 05:19:57;;;;;;;11.48;5.60;;;10.50;99.90;;;;;;8398811;28;20044;-79
2023/09/30 05:23:58;;;;;;;11.05;4.78;;;10.60;99.90;;;;;;8374732;28;20051;-80
2023/09/30 05:27:59;;;;;;;13.43;5.40;;;10.90;99.90;;;;;;8401642;28;20036;-80
2023/09/30 05:31:59;;;;;;;9.88;4.97;;;10.90;99.90;;;;;;8376681;28;20029;-80
2023/09/30 05:36:02;;;;;;;11.45;5.00;;;11.00;99.90;;;;;;8375453;28;20020;-80
2023/09/30 05:40:16;;;;;;;12.48;4.95;;;11.00;99.90;;;;;;8380432;28;20035;-80
2023/09/30 05:44:17;;;;;;;10.95;4.93;;;11.20;99.90;;;;;;8385894;28;20021;-79
2023/09/30 05:48:17;;;;;;;15.65;5.60;;;11.50;99.90;;;;;;8371775;28;20491;-79
2023/09/30 05:52:18;;;;;;;13.43;5.03;;;11.50;99.90;;;;;;8383779;28;20020;-80
2023/09/30 05:56:21;;;;;;;10.88;5.07;;;11.70;99.90;;;;;;8376024;28;20029;-79
2023/09/30 06:00:23;;;;;;;13.13;4.85;;;11.90;99.90;;;;;;8400564;28;20032;-79
2023/09/30 06:04:23;;;;;;;12.15;4.80;;;11.80;99.90;;;;;;8407116;28;20043;-78
2023/09/30 06:08:24;;;;;;;17.27;5.03;;;12.20;99.90;;;;;;8385369;28;20017;-79
2023/09/30 06:12:24;;;;;;;13.52;5.00;;;12.10;99.90;;;;;;8376722;28;20025;-80
2023/09/30 06:16:26;;;;;;;11.52;5.40;;;12.20;99.90;;;;;;8366792;28;20051;-80
2023/09/30 06:20:26;;;;;;;11.07;4.60;;;12.40;99.90;;;;;;8378546;28;20017;-80
2023/09/30 06:24:27;;;;;;;11.68;4.72;;;12.50;99.90;;;;;;8374684;28;20028;-80
2023/09/30 06:28:31;;;;;;;11.32;4.82;;;12.90;99.90;;;;;;8373743;28;20036;-79
2023/09/30 06:32:33;;;;;;;10.30;4.22;;;13.20;99.90;;;;;;8393090;28;20048;-80
2023/09/30 06:36:33;;;;;;;13.43;5.47;;;13.40;99.90;;;;;;8371473;28;20024;-80
2023/09/30 06:40:34;;;;;;;12.32;5.35;;;13.50;99.90;;;;;;8378971;28;20090;-80
2023/09/30 06:44:35;;;;;;;12.77;5.13;;;13.90;99.90;;;;;;8375465;28;20032;-80
2023/09/30 06:48:36;;;;;;;15.45;5.47;;;14.30;99.90;;;;;;8371183;28;20052;-80
2023/09/30 06:52:39;;;;;;;11.27;5.28;;;14.50;99.90;;;;;;8369202;28;20032;-80
2023/09/30 06:56:41;;;;;;;13.27;5.32;;;14.40;99.90;;;;;;8385953;28;20027;-79
2023/09/30 07:00:41;;;;;;;16.90;9.95;;;14.50;99.90;;;;;;8361979;28;20385;-80
2023/09/30 07:04:42;;;;;;;22.85;13.32;;;14.70;99.90;;;;;;8371133;28;20048;-80
2023/09/30 07:08:43;;;;;;;24.80;14.35;;;14.80;99.90;;;;;;8370264;28;20029;-80
2023/09/30 07:12:43;;;;;;;21.88;10.98;;;14.90;99.90;;;;;;8371608;28;20033;-81
2023/09/30 07:16:44;;;;;;;17.35;7.65;;;15.20;99.90;;;;;;8376173;28;20117;-81
2023/09/30 07:20:45;;;;;;;14.63;7.00;;;15.60;99.90;;;;;;8374731;28;20063;-80
2023/09/30 07:24:46;;;;;;;13.68;6.18;;;16.20;99.90;;;;;;8365176;28;20025;-81
2023/09/30 07:28:47;;;;;;;17.40;9.55;;;16.60;99.90;;;;;;8371787;28;20016;-80
2023/09/30 07:32:48;;;;;;;19.58;9.80;;;16.70;99.90;;;;;;8392061;28;20028;-81
2023/09/30 07:36:48;;;;;;;14.55;6.72;;;17.00;99.90;;;;;;8392263;28;20063;-80
2023/09/30 07:40:49;;;;;;;13.68;6.10;;;17.40;99.90;;;;;;8383993;28;20028;-79
2023/09/30 07:44:49;;;;;;;11.82;5.45;;;17.30;99.90;;;;;;8372285;28;20028;-78
2023/09/30 07:48:50;;;;;;;10.95;4.90;;;17.10;99.90;;;;;;8392633;28;20458;-80
2023/09/30 07:52:50;;;;;;;12.52;5.35;;;17.20;99.90;;;;;;8378692;28;20507;-80
2023/09/30 07:56:51;;;;;;;11.75;4.90;;;17.30;99.90;;;;;;8373323;28;20073;-80
2023/09/30 08:00:51;;;;;;;13.38;4.63;;;17.10;99.90;;;;;;8406171;28;20385;-79
2023/09/30 08:04:52;;;;;;;9.85;3.97;;;16.80;99.90;;;;;;8377516;28;20056;-80
2023/09/30 08:08:52;;;;;;;11.73;4.30;;;16.60;99.90;;;;;;8366069;28;20642;-80
2023/09/30 08:12:55;;;;;;;10.00;3.92;;;16.70;99.90;;;;;;8372546;28;20079;-80
2023/09/30 08:16:56;;;;;;;10.52;3.97;;;17.30;99.90;;;;;;8385583;28;20021;-80
2023/09/30 08:20:56;;;;;;;8.55;3.88;;;18.10;99.90;;;;;;8373173;28;20033;-80
2023/09/30 08:24:57;;;;;;;9.88;4.28;;;18.30;99.90;;;;;;8389536;28;20628;-78
2023/09/30 08:28:57;;;;;;;10.82;4.65;;;18.10;99.90;;;;;;8366625;28;20016;-80
2023/09/30 08:32:58;;;;;;;10.70;4.47;;;18.10;99.90;;;;;;8371781;28;20167;-79
2023/09/30 08:36:59;;;;;;;7.97;3.53;;;18.10;99.90;;;;;;8373098;28;20067;-79
2023/09/30 08:41:00;;;;;;;9.20;3.92;;;18.00;99.90;;;;;;8376611;28;20409;-80
2023/09/30 08:45:01;;;;;;;10.40;4.05;;;18.10;99.90;;;;;;8400746;28;20031;-80
2023/09/30 08:49:03;;;;;;;8.65;3.55;;;18.20;99.90;;;;;;8399512;28;20054;-80
2023/09/30 08:53:04;;;;;;;11.18;4.25;;;18.60;99.90;;;;;;8387547;28;20029;-80
2023/09/30 08:57:07;;;;;;;8.60;3.83;;;18.70;99.90;;;;;;8383832;28;20025;-80
2023/09/30 09:01:09;;;;;;;8.68;3.95;;;19.10;99.90;;;;;;8383866;28;20031;-80
2023/09/30 09:05:11;;;;;;;10.30;4.43;;;19.60;99.90;;;;;;8395368;28;20116;-80
2023/09/30 09:09:21;;;;;;;9.85;4.90;;;19.70;99.90;;;;;;8372796;28;20871;-79
2023/09/30 09:13:22;;;;;;;8.25;3.90;;;19.60;99.90;;;;;;8387988;28;20024;-79
2023/09/30 09:17:22;;;;;;;8.13;3.97;;;19.10;99.90;;;;;;8376680;28;20039;-82
2023/09/30 09:21:26;;;;;;;8.55;4.05;;;18.80;99.90;;;;;;8375926;28;20021;-81
2023/09/30 09:25:26;;;;;;;11.20;4.43;;;18.60;99.90;;;;;;8378120;28;20020;-82
2023/09/30 09:29:27;;;;;;;8.05;4.40;;;19.20;99.90;;;;;;8395947;28;20430;-82
2023/09/30 09:33:37;;;;;;;10.68;4.93;;;19.50;99.90;;;;;;8371197;28;20031;-82
2023/09/30 09:37:37;;;;;;;9.27;4.55;;;20.10;99.90;;;;;;8373548;28;20023;-82
2023/09/30 09:41:51;;;;;;;7.50;3.83;;;20.70;99.90;;;;;;8388487;28;20059;-82
2023/09/30 09:45:51;;;;;;;10.02;4.43;;;20.80;99.90;;;;;;8387085;28;20024;-81
2023/09/30 09:49:54;;;;;;;10.82;4.80;;;20.70;99.90;;;;;;8405537;28;20028;-82
2023/09/30 09:53:55;;;;;;;10.20;4.43;;;20.80;99.90;;;;;;8375411;28;20021;-81
2023/09/30 09:57:57;;;;;;;7.88;4.10;;;21.00;99.90;;;;;;8396743;28;20024;-79
2023/09/30 10:01:59;;;;;;;9.45;4.35;;;20.60;99.90;;;;;;8366407;28;20028;-79
2023/09/30 10:06:00;;;;;;;8.18;3.60;;;20.30;99.90;;;;;;8386692;28;20032;-80
2023/09/30 10:10:06;;;;;;;10.38;4.40;;;20.50;99.90;;;;;;8367251;28;20148;-81
2023/09/30 10:14:12;;;;;;;11.38;4.15;;;20.80;99.90;;;;;;8368563;28;20116;-81
2023/09/30 10:18:13;;;;;;;8.85;4.07;;;20.90;99.90;;;;;;8379143;28;20033;-82
2023/09/30 10:22:20;;;;;;;10.77;4.32;;;20.80;99.90;;;;;;8372762;28;20038;-82
2023/09/30 10:26:20;;;;;;;8.52;4.03;;;21.20;99.90;;;;;;8382263;28;20081;-81
2023/09/30 10:30:22;;;;;;;9.55;4.10;;;21.50;99.90;;;;;;8384879;28;20316;-81
2023/09/30 10:34:23;;;;;;;10.43;4.35;;;21.30;99.90;;;;;;8372728;28;20031;-82
2023/09/30 10:38:27;;;;;;;10.82;4.22;;;21.20;99.90;;;;;;8375286;28;20161;-79
2023/09/30 10:42:48;;;;;;;9.77;3.95;;;21.30;99.90;;;;;;8374111;28;20032;-80
2023/09/30 10:46:50;;;;;;;12.88;4.63;;;21.60;99.90;;;;;;8367423;28;20028;-79
2023/09/30 10:50:52;;;;;;;10.48;4.20;;;21.80;99.90;;;;;;8367777;28;20082;-80
2023/09/30 10:54:53;;;;;;;10.52;4.25;;;22.30;99.90;;;;;;8392285;28;20033;-79
2023/09/30 10:58:54;;;;;;;11.63;4.53;;;23.30;99.90;;;;;;8402010;28;20028;-76
2023/09/30 11:02:54;;;;;;;10.80;4.95;;;23.70;99.90;;;;;;8402794;28;20028;-78
2023/09/30 11:06:55;;;;;;;14.25;4.78;;;23.70;99.90;;;;;;8403799;28;20446;-80
2023/09/30 11:10:57;;;;;;;11.82;4.85;;;23.90;99.90;;;;;;8396965;28;20036;-80
2023/09/30 11:15:04;;;;;;;12.00;5.20;;;24.40;99.90;;;;;;8380802;28;20067;-80
2023/09/30 11:19:07;;;;;;;11.30;5.00;;;25.10;99.90;;;;;;8375359;28;20028;-79
2023/09/30 11:23:08;;;;;;;10.85;4.75;;;25.50;99.90;;;;;;8382566;28;20039;-80
2023/09/30 11:27:09;;;;;;;11.60;5.18;;;26.40;99.90;;;;;;8393660;28;20042;-79
2023/09/30 11:31:13;;;;;;;13.40;5.32;;;26.90;99.90;;;;;;8378597;28;20435;-80
2023/09/30 11:35:23;;;;;;;11.95;5.28;;;26.50;99.90;;;;;;8414111;28;20476;-79
2023/09/30 11:39:29;;;;;;;15.07;5.35;;;25.60;99.90;;;;;;8407712;28;20024;-80
2023/09/30 11:43:30;;;;;;;13.20;5.15;;;26.70;99.90;;;;;;8388561;28;20078;-79
2023/09/30 11:47:33;;;;;;;11.48;5.30;;;26.70;99.70;;;;;;8385372;28;20027;-78
2023/09/30 11:51:46;;;;;;;11.85;5.28;;;24.90;99.90;;;;;;8370894;28;20029;-80
2023/09/30 11:55:46;;;;;;;12.15;5.43;;;24.70;99.90;;;;;;8382508;28;20025;-79
2023/09/30 11:59:47;;;;;;;13.25;5.50;;;25.40;99.50;;;;;;8382052;28;20032;-79
2023/09/30 12:03:49;;;;;;;12.68;5.45;;;25.80;99.30;;;;;;8403731;28;20098;-79
2023/09/30 12:07:49;;;;;;;16.05;5.70;;;26.10;98.60;;;;;;8387535;28;20465;-80
2023/09/30 12:11:50;;;;;;;11.93;5.45;;;26.30;99.90;;;;;;8391877;28;20029;-79
2023/09/30 12:15:52;;;;;;;12.73;5.63;;;27.00;97.80;;;;;;8394744;28;20056;-80
2023/09/30 12:19:53;;;;;;;11.18;5.78;;;25.40;98.70;;;;;;8378572;28;20049;-79
2023/09/30 12:23:54;;;;;;;14.65;5.93;;;23.70;99.90;;;;;;8381821;28;20020;-79
2023/09/30 12:27:55;;;;;;;12.50;5.55;;;22.80;99.90;;;;;;8402251;28;20063;-79
2023/09/30 12:31:56;;;;;;;14.77;6.63;;;22.50;99.90;;;;;;8375879;28;20124;-78
2023/09/30 12:36:00;;;;;;;16.13;6.15;;;23.10;99.90;;;;;;8399695;28;20032;-78
2023/09/30 12:40:00;;;;;;;13.75;5.53;;;24.10;99.90;;;;;;8367614;28;20523;-79
2023/09/30 12:44:01;;;;;;;14.38;5.82;;;25.40;98.70;;;;;;8370065;28;20021;-80
2023/09/30 12:48:01;;;;;;;14.65;6.22;;;26.50;97.60;;;;;;8377831;28;20020;-80
2023/09/30 12:52:02;;;;;;;11.98;5.70;;;27.20;94.20;;;;;;8383958;28;20493;-80
2023/09/30 12:56:03;;;;;;;13.60;5.85;;;27.80;93.60;;;;;;8371614;28;20642;-79
2023/09/30 13:00:04;;;;;;;13.82;5.97;;;26.50;94.60;;;;;;8406056;28;20059;-79
2023/09/30 13:04:07;;;;;;;14.32;5.93;;;27.20;95.60;;;;;;8406094;28;20021;-80
2023/09/30 13:08:08;;;;;;;14.77;6.15;;;26.50;93.40;;;;;;8370045;28;20029;-80
2023/09/30 13:12:09;;;;;;;13.43;5.28;;;26.40;94.30;;;;;;8386335;28;20048;-79
2023/09/30 13:16:11;;;;;;;13.40;5.65;;;26.10;94.90;;;;;;8364041;28;20021;-80
2023/09/30 13:20:11;;;;;;;13.23;5.30;;;26.00;96.00;;;;;;8369337;28;20024;-79
2023/09/30 13:24:12;;;;;;;12.18;5.55;;;26.40;93.70;;;;;;8371011;28;20116;-80
2023/09/30 13:28:13;;;;;;;11.57;5.38;;;26.80;94.60;;;;;;8374031;28;20047;-79
2023/09/30 13:32:14;;;;;;;12.38;5.30;;;26.50;96.20;;;;;;8404765;28;20032;-80
2023/09/30 13:36:14;;;;;;;14.32;6.03;;;27.70;92.00;;;;;;8383517;28;20025;-79
2023/09/30 13:40:15;;;;;;;13.40;5.95;;;27.30;92.40;;;;;;8368806;28;20585;-79
2023/09/30 13:44:15;;;;;;;12.88;5.38;;;27.50;93.20;;;;;;8369204;28;20461;-80
2023/09/30 13:48:16;;;;;;;12.43;5.45;;;27.60;91.60;;;;;;8372834;28;20024;-80
2023/09/30 13:52:17;;;;;;;13.63;5.40;;;26.70;92.80;;;;;;8369555;28;20687;-79
2023/09/30 13:56:18;;;;;;;13.05;5.90;;;27.20;93.10;;;;;;8375798;28;20052;-80
2023/09/30 14:00:18;;;;;;;12.13;5.35;;;28.10;92.00;;;;;;8389945;28;20028;-81
2023/09/30 14:04:19;;;;;;;13.23;6.07;;;28.80;90.50;;;;;;8370185;28;20045;-80
2023/09/30 14:08:19;;;;;;;15.55;5.82;;;28.20;90.20;;;;;;8374033;28;20028;-78
2023/09/30 14:12:20;;;;;;;29.80;15.52;;;28.00;88.20;;;;;;8392371;28;20028;-80
2023/09/30 14:16:21;;;;;;;16.63;7.00;;;27.90;91.30;;;;;;8376524;28;20392;-80
2023/09/30 14:20:22;;;;;;;11.88;5.57;;;28.10;86.20;;;;;;8367316;28;20028;-79
2023/09/30 14:24:22;;;;;;;13.18;5.13;;;27.90;87.60;;;;;;8395363;28;20020;-79
2023/09/30 14:28:23;;;;;;;12.15;5.72;;;27.60;89.40;;;;;;8364947;28;20028;-79
2023/09/30 14:32:24;;;;;;;14.65;5.75;;;27.20;86.80;;;;;;8391912;28;20020;-79
2023/09/30 14:36:24;;;;;;;12.93;5.30;;;26.50;91.10;;;;;;8394074;28;20472;-80
2023/09/30 14:40:25;;;;;;;13.65;5.85;;;25.80;92.10;;;;;;8359816;28;20028;-80
2023/09/30 14:44:26;;;;;;;13.23;5.78;;;25.10;92.10;;;;;;8375888;28;20017;-79
2023/09/30 14:48:26;;;;;;;13.10;5.50;;;24.10;94.30;;;;;;8391926;28;20031;-80
2023/09/30 14:52:27;;;;;;;12.35;5.57;;;23.50;96.10;;;;;;8364671;28;20025;-80
2023/09/30 14:56:28;;;;;;;12.60;5.85;;;22.80;95.80;;;;;;8363553;28;20032;-80
2023/09/30 15:00:29;;;;;;;12.05;5.40;;;22.50;99.90;;;;;;8354958;28;20455;-79
2023/09/30 15:04:29;;;;;;;11.88;5.25;;;22.00;99.00;;;;;;8372501;28;20016;-80
2023/09/30 15:08:31;;;;;;;12.15;5.18;;;21.80;99.70;;;;;;8374067;28;20028;-79
2023/09/30 15:12:32;;;;;;;14.05;5.80;;;21.60;99.90;;;;;;8367856;28;20020;-79
2023/09/30 15:16:32;;;;;;;11.85;5.25;;;21.40;99.90;;;;;;8372356;28;20124;-80
2023/09/30 15:20:39;;;;;;;12.80;5.80;;;21.20;99.90;;;;;;8383527;28;20511;-80
2023/09/30 15:24:39;;;;;;;10.95;5.03;;;21.10;99.90;;;;;;8364664;28;20538;-80
2023/09/30 15:28:40;;;;;;;15.77;6.05;;;20.80;99.90;;;;;;8393386;28;20040;-79
2023/09/30 15:32:43;;;;;;;13.20;5.95;;;20.60;99.90;;;;;;8366730;28;20462;-80
2023/09/30 15:36:44;;;;;;;13.13;5.10;;;20.30;99.90;;;;;;8372617;28;20035;-80
2023/09/30 15:40:58;;;;;;;13.80;5.22;;;20.20;99.90;;;;;;8367953;28;20492;-78
2023/09/30 15:44:59;;;;;;;11.88;5.07;;;20.20;99.90;;;;;;8369772;28;20016;-78
2023/09/30 15:48:59;;;;;;;13.70;5.53;;;20.00;99.90;;;;;;8382683;28;20057;-78
2023/09/30 15:53:00;;;;;;;12.75;5.93;;;19.90;99.90;;;;;;8369154;28;20025;-78
2023/09/30 15:57:01;;;;;;;11.68;5.15;;;19.80;99.90;;;;;;8372639;28;20048;-78
2023/09/30 16:01:02;;;;;;;12.48;5.15;;;19.50;99.90;;;;;;8367626;28;20024;-79
2023/09/30 16:05:04;;;;;;;12.18;5.30;;;19.40;99.90;;;;;;8369244;28;20029;-77
2023/09/30 16:09:04;;;;;;;12.43;5.43;;;19.20;99.90;;;;;;8400144;28;20102;-79
2023/09/30 16:13:07;;;;;;;12.30;5.45;;;18.80;99.90;;;;;;8367454;28;20505;-77
2023/09/30 16:17:07;;;;;;;12.60;5.20;;;18.80;99.90;;;;;;8369390;28;20037;-79
2023/09/30 16:21:08;;;;;;;36.90;9.00;;;18.40;99.90;;;;;;8389438;28;20115;-78
2023/09/30 16:25:09;;;;;;;12.65;5.80;;;18.10;99.90;;;;;;8373920;28;20115;-79
2023/09/30 16:29:09;;;;;;;11.70;4.90;;;17.80;99.90;;;;;;8379133;28;20017;-78
2023/09/30 16:33:10;;;;;;;13.40;4.93;;;17.40;99.90;;;;;;8392571;28;20488;-79
2023/09/30 16:37:11;;;;;;;12.27;5.20;;;17.10;99.90;;;;;;8396928;28;20020;-79
2023/09/30 16:41:14;;;;;;;10.48;4.82;;;17.00;99.90;;;;;;8375582;28;20032;-79
2023/09/30 16:45:14;;;;;;;11.70;5.20;;;16.80;99.90;;;;;;8379137;28;20035;-79
2023/09/30 16:49:16;;;;;;;11.20;4.78;;;16.40;99.90;;;;;;8380200;28;20032;-78
2023/09/30 16:53:16;;;;;;;12.10;5.28;;;16.20;99.90;;;;;;8374440;28;20061;-79
2023/09/30 16:57:18;;;;;;;11.00;4.85;;;15.90;99.90;;;;;;8401103;28;20096;-79
2023/09/30 17:01:20;;;;;;;14.20;4.65;;;15.60;99.90;;;;;;8366790;28;20029;-79
2023/09/30 17:05:21;;;;;;;10.77;4.93;;;15.50;99.90;;;;;;8368357;28;20107;-79
2023/09/30 17:09:21;;;;;;;14.20;5.43;;;15.50;99.90;;;;;;8368146;28;20031;-79
2023/09/30 17:13:22;;;;;;;13.15;5.03;;;15.30;99.90;;;;;;8378871;28;20377;-80
2023/09/30 17:17:23;;;;;;;12.88;5.43;;;15.20;99.90;;;;;;8387217;28;20039;-80
2023/09/30 17:21:23;;;;;;;11.55;5.10;;;15.20;99.90;;;;;;8386415;28;20096;-80
2023/09/30 17:25:26;;;;;;;12.48;5.78;;;15.10;99.90;;;;;;8377074;28;20388;-79
2023/09/30 17:29:26;;;;;;;11.15;5.35;;;14.90;99.90;;;;;;8367497;28;20020;-78
2023/09/30 17:33:27;;;;;;;11.88;5.82;;;14.70;99.90;;;;;;8374464;28;20039;-80
2023/09/30 17:37:29;;;;;;;11.25;5.45;;;14.70;99.90;;;;;;8375054;28;20032;-79
2023/09/30 17:41:29;;;;;;;12.30;5.50;;;14.60;99.90;;;;;;8386752;28;20096;-79
2023/09/30 17:45:30;;;;;;;12.25;5.05;;;14.40;99.90;;;;;;8376626;28;20021;-79
2023/09/30 17:49:30;;;;;;;11.40;4.90;;;14.20;99.90;;;;;;8371832;28;20111;-79
2023/09/30 17:53:31;;;;;;;11.25;5.18;;;14.20;99.90;;;;;;8379811;28;20028;-77
2023/09/30 17:57:32;;;;;;;11.38;5.07;;;14.10;99.90;;;;;;8382709;28;20028;-80
2023/09/30 18:01:33;;;;;;;14.82;5.07;;;14.20;99.90;;;;;;8372047;28;20034;-80
2023/09/30 18:05:33;;;;;;;10.93;5.13;;;13.80;99.90;;;;;;8375987;28;20054;-78
2023/09/30 18:09:34;;;;;;;11.85;4.63;;;13.70;99.90;;;;;;8370047;28;20799;-79
2023/09/30 18:13:36;;;;;;;10.68;4.85;;;13.40;99.90;;;;;;8378576;28;20032;-79
2023/09/30 18:17:36;;;;;;;12.30;5.65;;;13.20;99.90;;;;;;8363760;28;20108;-80
2023/09/30 18:21:37;;;;;;;21.83;9.38;;;12.90;99.90;;;;;;8363920;28;20031;-79
2023/09/30 18:25:37;;;;;;;24.33;10.68;;;13.10;99.90;;;;;;8386913;28;20616;-79
2023/09/30 18:29:40;;;;;;;15.98;5.65;;;13.00;99.90;;;;;;8372865;28;20037;-80
2023/09/30 18:33:40;;;;;;;16.00;5.68;;;13.10;99.90;;;;;;8392254;28;20064;-76
2023/09/30 18:37:41;;;;;;;14.10;6.05;;;13.20;99.90;;;;;;8380435;28;20396;-79
2023/09/30 18:41:42;;;;;;;16.05;6.68;;;13.00;99.90;;;;;;8370698;28;20036;-79
2023/09/30 18:45:45;;;;;;;13.27;6.22;;;13.00;99.90;;;;;;8396984;28;20111;-79
2023/09/30 18:49:45;;;;;;;13.70;6.30;;;12.70;99.90;;;;;;8370453;28;20028;-80
2023/09/30 18:53:46;;;;;;;13.13;6.18;;;12.50;99.90;;;;;;8362069;28;20174;-80
2023/09/30 18:57:47;;;;;;;13.82;7.63;;;12.20;99.90;;;;;;8404500;28;20036;-79
2023/09/30 19:01:48;;;;;;;19.63;9.70;;;12.10;99.90;;;;;;8392035;28;20032;-79
2023/09/30 19:05:53;;;;;;;15.05;8.05;;;12.20;99.90;;;;;;8374920;28;20740;-79
2023/09/30 19:09:54;;;;;;;15.00;8.05;;;12.20;99.90;;;;;;8396481;28;20040;-79
2023/09/30 19:13:54;;;;;;;17.00;7.88;;;11.90;99.90;;;;;;8364511;28;20032;-79
2023/09/30 19:17:55;;;;;;;15.38;7.93;;;11.80;99.90;;;;;;8363753;28;20020;-79
2023/09/30 19:21:56;;;;;;;13.57;7.53;;;11.80;99.90;;;;;;8380463;28;20029;-78
2023/09/30 19:25:56;;;;;;;15.98;7.13;;;11.80;99.90;;;;;;8365885;28;20017;-79
2023/09/30 19:29:57;;;;;;;13.27;6.50;;;11.80;99.90;;;;;;8378350;28;20042;-77
2023/09/30 19:33:57;;;;;;;12.20;5.70;;;11.70;99.90;;;;;;8366469;28;20084;-78
2023/09/30 19:37:58;;;;;;;11.00;5.50;;;11.80;99.90;;;;;;8383089;28;20033;-79
2023/09/30 19:41:59;;;;;;;12.65;6.00;;;11.80;99.90;;;;;;8365693;28;20024;-80
2023/09/30 19:46:04;;;;;;;11.38;5.57;;;11.60;99.90;;;;;;8401738;28;20028;-80
2023/09/30 19:50:05;;;;;;;14.73;5.80;;;11.40;99.90;;;;;;8366597;28;20020;-77
2023/09/30 19:54:08;;;;;;;12.30;6.05;;;11.30;99.90;;;;;;8376387;28;20056;-80
2023/09/30 19:58:08;;;;;;;10.20;5.18;;;11.20;99.90;;;;;;8396651;28;20024;-80
2023/09/30 20:02:09;;;;;;;11.40;5.57;;;11.00;99.90;;;;;;8368525;28;20032;-80
2023/09/30 20:06:21;;;;;;;13.60;5.85;;;10.80;99.90;;;;;;8364755;28;20108;-80
2023/09/30 20:10:22;;;;;;;12.75;6.35;;;10.90;99.90;;;;;;8364591;28;20060;-79
2023/09/30 20:14:23;;;;;;;11.63;5.13;;;10.90;99.90;;;;;;8384550;28;20293;-79
2023/09/30 20:18:23;;;;;;;13.73;6.22;;;10.90;99.90;;;;;;8386953;28;20020;-78
2023/09/30 20:22:24;;;;;;;11.65;5.53;;;10.90;99.90;;;;;;8363417;28;20031;-80
2023/09/30 20:26:26;;;;;;;13.52;5.75;;;10.80;99.90;;;;;;8366828;28;20397;-80
2023/09/30 20:30:27;;;;;;;10.60;6.00;;;11.00;99.90;;;;;;8371518;28;20020;-80
2023/09/30 20:34:28;;;;;;;15.02;6.28;;;11.10;99.90;;;;;;8372205;28;20063;-79
2023/09/30 20:38:29;;;;;;;14.35;6.10;;;10.90;99.90;;;;;;8398990;28;20078;-80
2023/09/30 20:42:29;;;;;;;13.02;6.20;;;10.80;99.90;;;;;;8371722;28;20032;-79